Time;durP1;ratioP1;P1;durP2;ratioP2;P2;SDS_P1;SDS_P2;PMS_P1;PMS_P2;Temp;Humidity;BMP_temperature;BMP_pressure;BME280_temperature;BME280_humidity;BME280_pressure;Samples;Min_cycle;Max_cycle;Signal;HPM_P1;HPM_P2
2024/01/31 00:01:38;;;;;;;77.78;37.25;;;;;;;0.92;100.00;102312.09;5031136;28;20147;-52
2024/01/31 00:04:07;;;;;;;78.05;38.75;;;;;;;1.06;100.00;102309.59;5033395;28;20049;-45
2024/01/31 00:06:37;;;;;;;72.88;38.47;;;;;;;1.02;100.00;102308.69;5035408;28;20095;-44
2024/01/31 00:09:05;;;;;;;79.65;40.75;;;;;;;1.04;100.00;102301.72;5034988;28;20068;-44
2024/01/31 00:11:34;;;;;;;78.53;40.45;;;;;;;1.05;100.00;102311.34;5037748;28;20053;-43
2024/01/31 00:14:06;;;;;;;78.75;38.80;;;;;;;1.12;100.00;102309.69;5041693;28;20431;-44
2024/01/31 00:16:34;;;;;;;77.47;38.72;;;;;;;1.19;100.00;102310.66;5038762;28;20055;-44
2024/01/31 00:19:03;;;;;;;79.63;37.90;;;;;;;1.17;100.00;102304.50;5039971;28;20046;-45
2024/01/31 00:21:32;;;;;;;74.68;38.92;;;;;;;1.08;100.00;102308.78;5040305;28;20045;-45
2024/01/31 00:24:02;;;;;;;79.07;39.10;;;;;;;1.06;100.00;102305.28;5042437;28;20140;-46
2024/01/31 00:26:30;;;;;;;75.97;38.55;;;;;;;0.93;100.00;102303.34;5044077;28;20044;-50
2024/01/31 00:29:02;;;;;;;76.78;38.72;;;;;;;0.90;100.00;102302.44;5045793;28;20123;-45
2024/01/31 00:31:30;;;;;;;81.18;39.63;;;;;;;0.92;100.00;102305.94;5055195;28;20559;-43
2024/01/31 00:33:59;;;;;;;76.22;38.50;;;;;;;0.99;100.00;102306.06;5055527;28;20053;-46
2024/01/31 00:36:28;;;;;;;73.93;37.70;;;;;;;0.89;100.00;102311.19;5055048;28;20102;-44
2024/01/31 00:38:56;;;;;;;72.28;37.97;;;;;;;0.97;100.00;102305.16;5045565;28;20080;-45
2024/01/31 00:41:27;;;;;;;76.50;39.55;;;;;;;0.93;100.00;102298.09;5034448;28;20080;-45
2024/01/31 00:43:55;;;;;;;76.07;39.63;;;;;;;0.70;100.00;102312.69;5034114;28;20410;-45
2024/01/31 00:46:24;;;;;;;84.55;41.45;;;;;;;0.61;100.00;102305.56;5034340;28;20432;-44
2024/01/31 00:48:52;;;;;;;85.03;41.20;;;;;;;0.63;100.00;102303.84;5034383;28;20073;-49
2024/01/31 00:51:22;;;;;;;79.82;41.15;;;;;;;0.70;100.00;102304.81;5033719;28;20132;-45
2024/01/31 00:53:50;;;;;;;79.93;40.35;;;;;;;0.57;100.00;102299.38;5034143;28;20054;-48
2024/01/31 00:56:18;;;;;;;88.90;41.97;;;;;;;0.40;100.00;102300.91;5034100;28;20107;-44
2024/01/31 00:58:48;;;;;;;86.85;43.50;;;;;;;0.27;100.00;102305.06;5034125;28;20064;-45
2024/01/31 01:01:17;;;;;;;85.03;41.45;;;;;;;0.29;100.00;102302.50;5034217;28;20045;-46
2024/01/31 01:03:46;;;;;;;84.75;42.42;;;;;;;0.35;100.00;102299.06;5033597;28;20050;-44
2024/01/31 01:06:14;;;;;;;76.80;40.28;;;;;;;0.39;100.00;102299.16;5034358;28;20042;-44
2024/01/31 01:08:43;;;;;;;82.63;41.67;;;;;;;0.40;100.00;102295.66;5033949;28;20049;-44
2024/01/31 01:11:11;;;;;;;84.55;41.50;;;;;;;0.41;100.00;102289.53;5049488;28;20355;-44
2024/01/31 01:13:40;;;;;;;82.55;40.08;;;;;;;0.52;100.00;102290.56;5053934;28;20044;-45
2024/01/31 01:16:10;;;;;;;76.40;39.15;;;;;;;0.57;100.00;102287.97;5053623;28;20080;-45
2024/01/31 01:18:38;;;;;;;77.07;38.63;;;;;;;0.69;100.00;102284.66;5053664;28;20088;-44
2024/01/31 01:21:06;;;;;;;80.80;39.22;;;;;;;0.44;100.00;102284.31;5053445;28;20084;-46
2024/01/31 01:23:35;;;;;;;82.57;40.72;;;;;;;0.42;100.00;102283.44;5053626;28;20041;-44
2024/01/31 01:26:04;;;;;;;81.97;39.55;;;;;;;0.45;100.00;102280.84;5053834;28;20049;-44
2024/01/31 01:28:33;;;;;;;79.32;40.47;;;;;;;0.26;100.00;102286.69;5053644;28;20418;-43
2024/01/31 01:31:02;;;;;;;76.57;39.50;;;;;;;0.08;100.00;102279.41;5053590;28;20491;-46
2024/01/31 01:33:31;;;;;;;80.93;40.50;;;;;;;0.17;100.00;102286.56;5053532;28;20119;-46
2024/01/31 01:36:03;;;;;;;81.82;39.75;;;;;;;0.22;100.00;102280.53;5053257;28;20049;-47
2024/01/31 01:38:32;;;;;;;77.20;38.55;;;;;;;0.17;100.00;102286.56;5052946;28;20056;-45
2024/01/31 01:41:02;;;;;;;76.28;39.38;;;;;;;0.16;100.00;102283.03;5053113;28;20049;-44
2024/01/31 01:43:31;;;;;;;78.65;40.38;;;;;;;0.17;100.00;102287.44;5053022;28;20088;-46
2024/01/31 01:46:07;;;;;;;74.85;38.67;;;;;;;0.14;100.00;102282.16;5053300;28;20139;-43
2024/01/31 01:48:38;;;;;;;79.20;38.67;;;;;;;0.22;100.00;102285.78;5036505;28;20049;-43
2024/01/31 01:51:07;;;;;;;86.15;41.13;;;;;;;0.23;100.00;102274.41;5016003;28;20049;-44
2024/01/31 01:53:37;;;;;;;80.43;40.28;;;;;;;0.13;100.00;102266.38;5033311;28;20053;-45
2024/01/31 01:56:08;;;;;;;80.43;39.70;;;;;;;0.11;100.00;102265.50;5033272;28;20045;-46
2024/01/31 01:58:37;;;;;;;81.85;41.10;;;;;;;-0.01;100.00;102264.41;5033132;28;20390;-45
2024/01/31 02:01:06;;;;;;;80.35;40.30;;;;;;;0.05;100.00;102260.13;5032935;28;20089;-45
2024/01/31 02:03:39;;;;;;;78.80;39.22;;;;;;;0.13;100.00;102253.25;5033189;28;20046;-46
2024/01/31 02:06:08;;;;;;;76.57;39.22;;;;;;;0.12;100.00;102246.25;5033165;28;20374;-45
2024/01/31 02:08:36;;;;;;;77.55;38.72;;;;;;;0.03;100.00;102246.13;5032960;28;20060;-46
2024/01/31 02:11:05;;;;;;;81.07;40.13;;;;;;;-0.11;100.00;102238.91;5032948;28;20103;-46
2024/01/31 02:13:33;;;;;;;75.93;39.92;;;;;;;-0.15;100.00;102229.25;5032880;28;20107;-46
2024/01/31 02:16:02;;;;;;;81.10;39.97;;;;;;;-0.21;100.00;102234.38;5032719;28;20051;-45
2024/01/31 02:18:30;;;;;;;79.85;39.85;;;;;;;-0.41;100.00;102234.06;5032958;28;20124;-44
2024/01/31 02:21:03;;;;;;;76.38;38.00;;;;;;;-0.19;100.00;102231.78;5032733;28;20046;-44
2024/01/31 02:23:33;;;;;;;74.00;37.67;;;;;;;-0.02;100.00;102228.56;5032262;28;20406;-45
2024/01/31 02:26:01;;;;;;;73.63;38.53;;;;;;;-0.01;100.00;102225.06;5032426;28;20049;-46
2024/01/31 02:28:30;;;;;;;77.60;38.88;;;;;;;0.05;100.00;102226.91;5032428;28;20053;-46
2024/01/31 02:30:58;;;;;;;71.15;36.58;;;;;;;-0.04;100.00;102225.03;5032781;28;20045;-45
2024/01/31 02:33:27;;;;;;;73.22;37.25;;;;;;;0.01;100.00;102226.84;5032675;28;20045;-44
2024/01/31 02:35:55;;;;;;;75.25;38.92;;;;;;;0.04;100.00;102226.88;5032355;28;20493;-45
2024/01/31 02:38:23;;;;;;;74.53;36.13;;;;;;;0.05;100.00;102232.16;5032410;28;20143;-45
2024/01/31 02:40:53;;;;;;;71.90;37.17;;;;;;;0.03;100.00;102230.38;5032719;28;20132;-46
2024/01/31 02:43:23;;;;;;;68.53;36.33;;;;;;;0.03;100.00;102230.38;5034824;28;20086;-50
2024/01/31 02:45:52;;;;;;;70.05;36.35;;;;;;;-0.04;100.00;102225.03;5034415;28;20045;-45
2024/01/31 02:48:21;;;;;;;73.18;37.33;;;;;;;-0.26;100.00;102227.31;5031715;28;20449;-46
2024/01/31 02:50:53;;;;;;;75.40;38.92;;;;;;;-0.20;100.00;102228.28;5032371;28;20464;-45
2024/01/31 02:53:21;;;;;;;71.70;36.78;;;;;;;-0.09;100.00;102224.09;5031662;28;20045;-45
2024/01/31 02:55:49;;;;;;;78.40;36.20;;;;;;;-0.13;100.00;102226.63;5032794;28;20049;-46
2024/01/31 02:58:19;;;;;;;73.43;38.58;;;;;;;-0.17;100.00;102220.47;5032529;28;20046;-44
2024/01/31 03:00:48;;;;;;;76.97;37.83;;;;;;;-0.24;100.00;102217.72;5032189;28;20456;-45
2024/01/31 03:03:19;;;;;;;73.50;37.10;;;;;;;-0.26;100.00;102216.81;5031850;28;20377;-46
2024/01/31 03:05:47;;;;;;;70.63;37.22;;;;;;;-0.19;100.00;102219.56;5031451;28;20045;-45
2024/01/31 03:08:16;;;;;;;73.82;37.95;;;;;;;-0.11;100.00;102223.16;5031896;28;20443;-44
2024/01/31 03:10:44;;;;;;;71.65;36.58;;;;;;;-0.11;100.00;102225.78;5049113;28;20045;-46
2024/01/31 03:13:14;;;;;;;74.22;38.17;;;;;;;-0.21;100.00;102223.00;5034240;28;20105;-44
2024/01/31 03:15:44;;;;;;;71.93;35.80;;;;;;;-0.15;100.00;102231.88;5051851;28;20051;-46
2024/01/31 03:18:13;;;;;;;79.65;38.65;;;;;;;-0.35;100.00;102223.69;5034152;28;20090;-44
2024/01/31 03:20:41;;;;;;;78.20;38.25;;;;;;;-0.25;100.00;102229.97;5051668;28;20091;-46
2024/01/31 03:23:09;;;;;;;76.60;37.85;;;;;;;-0.47;100.00;102225.25;5051957;28;20049;-45
2024/01/31 03:25:38;;;;;;;73.25;36.97;;;;;;;-0.52;100.00;102224.25;5051730;28;20047;-47
2024/01/31 03:28:06;;;;;;;82.95;38.92;;;;;;;-0.60;100.00;102224.13;5051941;28;20053;-46
2024/01/31 03:30:35;;;;;;;85.18;40.05;;;;;;;-0.71;100.00;102228.31;5052179;28;20055;-45
2024/01/31 03:33:05;;;;;;;82.57;38.35;;;;;;;-0.55;100.00;102219.88;5052157;28;20052;-46
2024/01/31 03:35:36;;;;;;;87.45;37.45;;;;;;;-0.74;100.00;102223.91;5051282;28;20103;-44
2024/01/31 03:38:07;;;;;;;99.43;38.67;;;;;;;-1.24;100.00;102220.38;5051441;28;20049;-46
2024/01/31 03:40:36;;;;;;;93.50;39.65;;;;;;;-1.29;100.00;102215.03;5051522;28;20514;-45
2024/01/31 03:43:05;;;;;;;83.20;39.20;;;;;;;-0.97;100.00;102222.59;5051035;28;20487;-46
2024/01/31 03:45:33;;;;;;;88.50;37.67;;;;;;;-1.49;100.00;102224.22;5051152;28;20082;-44
2024/01/31 03:48:03;;;;;;;86.35;39.78;;;;;;;-0.98;100.00;102226.06;5051594;28;20139;-44
2024/01/31 03:50:33;;;;;;;88.07;39.70;;;;;;;-1.13;100.00;102228.41;5051078;28;20559;-44
2024/01/31 03:53:04;;;;;;;99.97;40.20;;;;;;;-1.47;100.00;102222.50;5051483;28;20049;-45
2024/01/31 03:55:33;;;;;;;90.32;39.65;;;;;;;-1.19;100.00;102223.94;5051262;28;20533;-50
2024/01/31 03:58:03;;;;;;;92.38;39.50;;;;;;;-0.91;100.00;102225.34;5051144;28;20072;-46
2024/01/31 04:00:37;;;;;;;90.43;38.17;;;;;;;-0.78;100.00;102226.44;5053047;28;20457;-46
2024/01/31 04:03:06;;;;;;;83.45;37.60;;;;;;;-0.77;100.00;102221.25;5055493;28;20080;-46
2024/01/31 04:05:36;;;;;;;81.80;38.83;;;;;;;-1.16;100.00;102224.91;5055179;28;20126;-48
2024/01/31 04:08:05;;;;;;;92.70;37.70;;;;;;;-0.97;100.00;102225.22;5052017;28;20049;-45
2024/01/31 04:10:34;;;;;;;89.10;38.42;;;;;;;-0.81;100.00;102231.63;5055173;28;20053;-44
2024/01/31 04:13:02;;;;;;;84.57;35.75;;;;;;;-1.18;100.00;102237.06;5055002;28;20107;-47
2024/01/31 04:15:31;;;;;;;84.45;37.08;;;;;;;-1.69;100.00;102241.22;5055469;28;20049;-46
2024/01/31 04:18:00;;;;;;;86.45;39.40;;;;;;;-1.42;100.00;102236.59;5055002;28;20048;-45
2024/01/31 04:20:29;;;;;;;97.93;39.40;;;;;;;-1.90;100.00;102239.91;5054920;28;20119;-45
2024/01/31 04:22:59;;;;;;;91.47;38.30;;;;;;;-1.87;100.00;102239.97;5054862;28;20551;-44
2024/01/31 04:25:35;;;;;;;93.05;38.88;;;;;;;-1.79;100.00;102243.66;5054989;28;20044;-46
2024/01/31 04:28:04;;;;;;;93.72;41.40;;;;;;;-1.51;100.00;102247.75;5055005;28;20222;-54
2024/01/31 04:30:33;;;;;;;98.50;39.45;;;;;;;-1.38;100.00;102248.88;5055262;28;20041;-49
2024/01/31 04:33:01;;;;;;;97.53;38.97;;;;;;;-1.32;100.00;102248.13;5057049;28;20053;-46
2024/01/31 04:35:30;;;;;;;91.32;37.55;;;;;;;-1.26;100.00;102249.09;5060392;28;20041;-49
2024/01/31 04:38:02;;;;;;;90.72;38.22;;;;;;;-1.08;100.00;102252.94;5062356;28;20044;-46
2024/01/31 04:40:30;;;;;;;92.05;39.63;;;;;;;-1.14;100.00;102242.38;5055350;28;20461;-48
2024/01/31 04:42:59;;;;;;;87.53;37.67;;;;;;;-1.17;100.00;102243.16;5054091;28;20053;-45
2024/01/31 04:45:27;;;;;;;78.70;36.20;;;;;;;-1.32;100.00;102237.66;5055095;28;20132;-46
2024/01/31 04:47:55;;;;;;;85.10;37.88;;;;;;;-1.31;100.00;102239.41;5054901;28;20049;-46
2024/01/31 04:50:24;;;;;;;79.90;35.60;;;;;;;-1.39;100.00;102231.41;5054683;28;20057;-46
2024/01/31 04:52:56;;;;;;;85.78;36.13;;;;;;;-1.46;100.00;102233.00;5054852;28;20053;-48
2024/01/31 04:55:26;;;;;;;80.88;37.58;;;;;;;-1.68;100.00;102245.59;5054720;28;20107;-46
2024/01/31 04:57:54;;;;;;;84.70;38.00;;;;;;;-1.67;100.00;102229.94;5054506;28;20552;-51
2024/01/31 05:00:23;;;;;;;91.85;39.13;;;;;;;-1.63;100.00;102234.41;5056668;28;20044;-45
2024/01/31 05:02:52;;;;;;;91.55;39.90;;;;;;;-1.47;100.00;102235.59;5056609;28;20045;-47
2024/01/31 05:05:20;;;;;;;88.68;38.33;;;;;;;-1.43;100.00;102229.59;5053977;28;20052;-46
2024/01/31 05:07:49;;;;;;;92.53;39.42;;;;;;;-1.55;100.00;102239.78;5054089;28;20045;-45
2024/01/31 05:10:18;;;;;;;93.80;38.97;;;;;;;-1.52;100.00;102234.63;5054265;28;20049;-51
2024/01/31 05:12:48;;;;;;;91.63;39.38;;;;;;;-1.52;100.00;102234.63;5055435;28;20052;-44
2024/01/31 05:15:19;;;;;;;94.20;39.28;;;;;;;-1.71;100.00;102233.34;5054034;28;20721;-46
2024/01/31 05:17:48;;;;;;;97.95;39.88;;;;;;;-1.70;100.00;102236.84;5054081;28;20052;-46
2024/01/31 05:20:16;;;;;;;92.88;40.30;;;;;;;-1.77;100.00;102233.22;5054121;28;20194;-46
2024/01/31 05:22:45;;;;;;;96.63;39.67;;;;;;;-1.52;100.00;102239.88;5053786;28;20049;-45
2024/01/31 05:25:13;;;;;;;93.07;39.53;;;;;;;-1.37;100.00;102232.31;5053590;28;20057;-45
2024/01/31 05:27:42;;;;;;;96.53;40.13;;;;;;;-1.32;100.00;102232.41;5053665;28;20045;-45
2024/01/31 05:30:14;;;;;;;94.53;38.72;;;;;;;-1.31;100.00;102224.59;5053706;28;20049;-46
2024/01/31 05:32:42;;;;;;;90.95;38.33;;;;;;;-1.42;100.00;102228.72;5053496;28;20128;-46
2024/01/31 05:35:10;;;;;;;85.90;37.60;;;;;;;-1.41;100.00;102234.84;5053418;28;20582;-46
2024/01/31 05:37:39;;;;;;;89.15;39.17;;;;;;;-1.26;100.00;102235.13;5053406;28;20139;-47
2024/01/31 05:40:09;;;;;;;89.00;38.90;;;;;;;-1.34;100.00;102232.38;5053411;28;20553;-45
2024/01/31 05:42:39;;;;;;;87.60;38.00;;;;;;;-1.55;100.00;102231.94;5053193;28;20078;-45
2024/01/31 05:45:08;;;;;;;83.70;37.88;;;;;;;-1.35;100.00;102227.09;5053200;28;20136;-46
2024/01/31 05:47:38;;;;;;;83.82;37.40;;;;;;;-1.45;100.00;102226.03;5053433;28;20581;-48
2024/01/31 05:50:07;;;;;;;90.10;36.15;;;;;;;-1.52;100.00;102229.41;5053342;28;20106;-46
2024/01/31 05:52:39;;;;;;;83.82;37.53;;;;;;;-1.60;100.00;102226.59;5053226;28;20072;-49
2024/01/31 05:55:08;;;;;;;91.78;38.97;;;;;;;-1.63;100.00;102229.19;5053112;28;20549;-46
2024/01/31 05:57:36;;;;;;;90.82;38.10;;;;;;;-1.47;100.00;102222.50;5053369;28;20053;-46
2024/01/31 06:00:09;;;;;;;86.95;37.42;;;;;;;-1.48;100.00;102216.38;5053435;28;20417;-44
2024/01/31 06:02:43;;;;;;;89.63;38.10;;;;;;;-1.32;100.00;102217.59;5053604;28;20498;-46
2024/01/31 06:05:13;;;;;;;88.65;38.35;;;;;;;-1.31;100.00;102218.47;5054750;28;20398;-54
2024/01/31 06:07:44;;;;;;;81.28;37.88;;;;;;;-1.64;100.00;102229.13;5054893;28;20060;-45
2024/01/31 06:10:13;;;;;;;84.05;37.88;;;;;;;-1.50;100.00;102215.47;5053676;28;20049;-45
2024/01/31 06:12:41;;;;;;;83.30;36.53;;;;;;;-1.58;100.00;102224.91;5052938;28;20045;-44
2024/01/31 06:15:13;;;;;;;81.07;35.22;;;;;;;-1.57;100.00;102220.53;5052867;28;20406;-46
2024/01/31 06:17:43;;;;;;;86.95;36.47;;;;;;;-1.55;100.00;102224.06;5052993;28;20044;-47
2024/01/31 06:20:15;;;;;;;82.30;35.83;;;;;;;-1.32;100.00;102220.19;5053008;28;20430;-46
2024/01/31 06:22:44;;;;;;;84.45;37.03;;;;;;;-1.28;100.00;102223.75;5052537;28;20049;-49
2024/01/31 06:25:12;;;;;;;86.53;36.63;;;;;;;-1.26;100.00;102222.91;5052723;28;20049;-47
2024/01/31 06:27:41;;;;;;;80.40;35.88;;;;;;;-1.30;100.00;102231.59;5054089;28;20053;-46
2024/01/31 06:30:19;;;;;;;81.63;36.35;;;;;;;-1.20;100.00;102224.78;5059103;28;20060;-46
2024/01/31 06:32:49;;;;;;;79.22;36.55;;;;;;;-1.23;100.00;102223.00;5059375;28;20045;-45
2024/01/31 06:35:18;;;;;;;82.40;35.28;;;;;;;-1.38;100.00;102227.94;5038065;28;20053;-46
2024/01/31 06:37:47;;;;;;;82.20;35.30;;;;;;;-1.27;100.00;102226.41;5053269;28;20044;-46
2024/01/31 06:40:16;;;;;;;81.40;36.22;;;;;;;-1.57;100.00;102231.00;5052438;28;20041;-46
2024/01/31 06:42:48;;;;;;;80.20;35.30;;;;;;;-1.51;100.00;102237.28;5052090;28;20052;-46
2024/01/31 06:45:17;;;;;;;80.93;35.55;;;;;;;-1.42;100.00;102226.09;5051750;28;20135;-45
2024/01/31 06:47:45;;;;;;;80.38;35.63;;;;;;;-1.33;100.00;102234.16;5051630;28;20091;-46
2024/01/31 06:50:17;;;;;;;89.05;37.67;;;;;;;-1.30;100.00;102236.81;5052158;28;20149;-46
2024/01/31 06:52:47;;;;;;;77.00;34.45;;;;;;;-1.30;100.00;102236.81;5052234;28;20388;-46
2024/01/31 06:55:18;;;;;;;82.35;36.97;;;;;;;-1.20;100.00;102233.53;5051953;28;20064;-47
2024/01/31 06:57:46;;;;;;;72.50;35.30;;;;;;;-1.47;100.00;102244.31;5051622;28;20044;-49
2024/01/31 07:00:16;;;;;;;75.45;36.72;;;;;;;-1.55;100.00;102237.16;5051601;28;20056;-45
2024/01/31 07:02:47;;;;;;;75.60;37.47;;;;;;;-1.64;100.00;102244.81;5051934;28;20095;-47
2024/01/31 07:05:17;;;;;;;80.45;38.50;;;;;;;-1.73;100.00;102235.06;5052267;28;20053;-46
2024/01/31 07:07:48;;;;;;;87.65;39.60;;;;;;;-1.78;100.00;102232.31;5051916;28;20052;-46
2024/01/31 07:10:16;;;;;;;86.78;39.20;;;;;;;-1.68;100.00;102237.75;5051795;28;20049;-47
2024/01/31 07:12:45;;;;;;;88.90;39.67;;;;;;;-1.51;100.00;102233.78;5051371;28;20092;-46
2024/01/31 07:15:14;;;;;;;87.35;40.30;;;;;;;-1.38;100.00;102233.16;5051624;28;20047;-45
2024/01/31 07:17:46;;;;;;;86.13;37.97;;;;;;;-1.28;100.00;102232.50;5051427;28;20045;-44
2024/01/31 07:20:15;;;;;;;83.47;39.95;;;;;;;-1.05;100.00;102230.34;5051981;28;20130;-45
2024/01/31 07:22:45;;;;;;;86.53;40.08;;;;;;;-1.03;100.00;102232.97;5051889;28;20510;-45
2024/01/31 07:25:14;;;;;;;87.47;41.55;;;;;;;-1.14;100.00;102229.28;5051038;28;20049;-45
2024/01/31 07:27:44;;;;;;;93.60;41.72;;;;;;;-0.98;100.00;102229.56;5051175;28;20128;-44
2024/01/31 07:30:12;;;;;;;87.32;40.05;;;;;;;-0.84;100.00;102229.84;5051094;28;20044;-45
2024/01/31 07:32:41;;;;;;;95.95;40.58;;;;;;;-0.56;100.00;102227.72;5051005;28;20371;-45
2024/01/31 07:35:09;;;;;;;92.47;40.53;;;;;;;-0.36;100.00;102231.53;5050293;28;20092;-45
2024/01/31 07:37:38;;;;;;;92.43;40.15;;;;;;;-0.14;100.00;102244.13;5050900;28;20132;-45
2024/01/31 07:40:10;;;;;;;82.20;39.47;;;;;;;0.04;100.00;102242.63;5033660;28;20133;-46
2024/01/31 07:42:39;;;;;;;82.95;38.38;;;;;;;0.09;100.00;102240.94;5050974;28;20406;-46
2024/01/31 07:45:09;;;;;;;93.28;41.35;;;;;;;0.06;100.00;102248.78;5050783;28;20140;-46
2024/01/31 07:47:38;;;;;;;89.70;41.00;;;;;;;0.00;100.00;102252.22;5050565;28;20561;-45
2024/01/31 07:50:08;;;;;;;81.88;39.90;;;;;;;0.23;100.00;102244.66;5050818;28;20125;-47
2024/01/31 07:52:37;;;;;;;78.28;39.15;;;;;;;0.30;100.00;102251.75;5050583;28;20044;-47
2024/01/31 07:55:10;;;;;;;87.07;40.72;;;;;;;0.13;100.00;102248.03;5042078;28;20042;-45
2024/01/31 07:57:39;;;;;;;85.88;39.83;;;;;;;0.12;100.00;102251.50;5030486;28;20447;-46
2024/01/31 08:00:09;;;;;;;86.15;41.38;;;;;;;0.29;100.00;102247.38;5030605;28;20061;-46
2024/01/31 08:02:39;;;;;;;82.85;38.80;;;;;;;0.45;100.00;102248.44;5030668;28;20137;-48
2024/01/31 08:05:07;;;;;;;79.22;38.90;;;;;;;0.39;100.00;102241.38;5030981;28;20060;-43
2024/01/31 08:07:38;;;;;;;84.80;39.63;;;;;;;0.47;100.00;102244.97;5018346;28;20042;-47
2024/01/31 08:10:14;;;;;;;85.32;41.83;;;;;;;0.57;100.00;102251.22;5033850;28;20100;-46
2024/01/31 08:12:44;;;;;;;79.28;40.25;;;;;;;0.57;100.00;102241.59;5030583;28;20049;-47
2024/01/31 08:15:12;;;;;;;72.90;38.33;;;;;;;0.77;100.00;102244.50;5030232;28;20049;-45
2024/01/31 08:17:43;;;;;;;74.95;38.47;;;;;;;0.63;100.00;102245.19;5030060;28;20866;-45
2024/01/31 08:20:12;;;;;;;69.40;36.45;;;;;;;0.70;100.00;102241.78;5030569;28;20107;-46
2024/01/31 08:22:40;;;;;;;67.32;33.90;;;;;;;0.91;100.00;102242.00;5030501;28;20045;-44
2024/01/31 08:25:12;;;;;;;66.03;34.35;;;;;;;0.89;100.00;102238.50;5030402;28;20060;-44
2024/01/31 08:27:48;;;;;;;64.82;33.30;;;;;;;0.81;100.00;102227.00;5030300;28;20076;-43
2024/01/31 08:30:18;;;;;;;67.85;34.97;;;;;;;0.98;100.00;102220.19;5023169;28;20054;-49
2024/01/31 08:32:52;;;;;;;63.80;31.75;;;;;;;1.30;100.00;102217.00;5029832;28;20046;-45
2024/01/31 08:35:20;;;;;;;66.00;34.53;;;;;;;1.34;100.00;102217.03;5029857;28;20132;-46
2024/01/31 08:37:49;;;;;;;68.30;34.65;;;;;;;1.64;100.00;102216.44;5030336;28;20046;-44
2024/01/31 08:40:19;;;;;;;67.72;34.15;;;;;;;1.76;100.00;102218.25;5029974;28;20041;-45
2024/01/31 08:42:48;;;;;;;62.05;32.50;;;;;;;2.05;100.00;102218.44;5029508;28;20052;-45
2024/01/31 08:45:17;;;;;;;58.05;31.67;;;;;;;2.25;100.00;102216.81;5029741;28;20096;-45
2024/01/31 08:47:45;;;;;;;65.10;33.10;;;;;;;2.21;100.00;102212.38;5033715;28;20050;-44
2024/01/31 08:50:14;;;;;;;57.15;31.05;;;;;;;2.07;100.00;102216.72;5033910;28;20054;-46
2024/01/31 08:52:42;;;;;;;56.47;30.55;;;;;;;2.06;100.00;102204.41;5034053;28;20045;-44
2024/01/31 08:55:14;;;;;;;54.10;29.35;;;;;;;2.03;100.00;102207.03;5015790;28;20052;-45
2024/01/31 08:57:47;;;;;;;59.28;30.60;;;;;;;2.07;100.00;102206.19;5033471;28;20487;-46
2024/01/31 09:00:16;;;;;;;52.60;30.70;;;;;;;2.14;100.00;102213.25;5033501;28;20085;-44
2024/01/31 09:02:45;;;;;;;56.22;30.13;;;;;;;2.14;100.00;102202.72;5033176;28;20053;-45
2024/01/31 09:05:13;;;;;;;60.42;30.35;;;;;;;2.15;100.00;102200.97;5033530;28;20096;-43
2024/01/31 09:07:42;;;;;;;55.30;30.90;;;;;;;2.45;100.00;102201.09;5033434;28;20070;-45
2024/01/31 09:10:11;;;;;;;55.08;29.63;;;;;;;2.71;100.00;102201.22;5033196;28;20124;-46
2024/01/31 09:12:39;;;;;;;52.92;30.02;;;;;;;3.00;100.00;102197.75;5033253;28;20042;-45
2024/01/31 09:15:13;;;;;;;55.25;30.90;;;;;;;2.86;100.00;102200.34;5033033;28;20081;-45
2024/01/31 09:17:43;;;;;;;58.42;30.25;;;;;;;3.04;100.00;102196.88;5032905;28;20053;-45
2024/01/31 09:20:12;;;;;;;57.33;30.67;;;;;;;2.93;100.00;102194.22;5032701;28;20503;-46
2024/01/31 09:22:40;;;;;;;59.03;31.35;;;;;;;3.02;100.00;102201.28;5032787;28;20459;-45
2024/01/31 09:25:10;;;;;;;58.85;29.85;;;;;;;3.00;100.00;102198.66;5032807;28;20049;-46
2024/01/31 09:27:41;;;;;;;63.00;32.38;;;;;;;3.11;100.00;102211.84;5032750;28;20084;-44
2024/01/31 09:30:11;;;;;;;56.88;31.00;;;;;;;3.16;100.00;102210.06;5032736;28;20494;-43
2024/01/31 09:32:40;;;;;;;57.22;31.98;;;;;;;3.42;100.00;102203.06;5032556;28;20050;-48
2024/01/31 09:35:08;;;;;;;53.05;29.00;;;;;;;3.67;100.00;102203.09;5032612;28;20073;-45
2024/01/31 09:37:37;;;;;;;56.20;30.67;;;;;;;3.79;100.00;102200.41;5033069;28;20168;-45
2024/01/31 09:40:07;;;;;;;56.10;29.67;;;;;;;3.96;100.00;102193.34;4998915;28;20568;-46
2024/01/31 09:42:38;;;;;;;;;;;;;;;4.00;100.00;102183.66;5034471;28;20091;-45
2024/01/31 09:45:11;;;;;;;53.88;28.77;;;;;;;3.76;100.00;102187.19;5037165;28;19925;-46
2024/01/31 09:47:44;;;;;;;55.13;28.63;;;;;;;3.63;100.00;102193.38;5033378;28;20085;-45
2024/01/31 09:50:13;;;;;;;53.05;29.88;;;;;;;3.65;100.00;102183.69;5032611;28;20045;-45
2024/01/31 09:52:42;;;;;;;49.63;28.38;;;;;;;3.60;100.00;102180.22;5031866;28;20450;-45
2024/01/31 09:55:12;;;;;;;54.13;28.77;;;;;;;3.42;100.00;102179.31;5032336;28;20121;-44
2024/01/31 09:57:44;;;;;;;54.40;28.55;;;;;;;3.54;100.00;102165.25;5031767;28;20049;-44
2024/01/31 10:00:13;;;;;;;54.28;28.02;;;;;;;3.65;100.00;102170.50;5015071;28;20053;-44
2024/01/31 10:02:42;;;;;;;54.70;28.70;;;;;;;3.77;100.00;102162.59;5032363;28;20114;-48
2024/01/31 10:05:13;;;;;;;47.65;27.20;;;;;;;3.90;100.00;102153.75;5032661;28;20132;-44
2024/01/31 10:07:41;;;;;;;51.92;28.10;;;;;;;4.02;100.00;102148.44;5031888;28;20390;-45
2024/01/31 10:10:10;;;;;;;55.28;29.35;;;;;;;3.98;100.00;102145.81;5032063;28;20140;-45
2024/01/31 10:12:39;;;;;;;42.20;23.77;;;;;;;4.18;100.00;102148.41;5032371;28;20045;-45
2024/01/31 10:15:09;;;;;;;40.50;22.20;;;;;;;4.32;100.00;102141.28;5032490;28;20186;-44
2024/01/31 10:17:39;;;;;;;35.08;20.73;;;;;;;4.43;100.00;102128.00;5031926;28;20053;-46
2024/01/31 10:20:13;;;;;;;36.55;19.73;;;;;;;4.38;100.00;102120.13;5015044;28;20434;-45
2024/01/31 10:22:44;;;;;;;35.70;20.05;;;;;;;4.62;100.00;102128.78;5032497;28;20045;-46
2024/01/31 10:25:16;;;;;;;38.17;19.83;;;;;;;4.76;100.00;102124.31;5032598;28;20045;-46
2024/01/31 10:27:46;;;;;;;37.87;20.53;;;;;;;4.86;100.00;102126.88;5036432;28;20136;-45
2024/01/31 10:30:18;;;;;;;40.63;21.48;;;;;;;4.81;100.00;102123.38;5036534;28;20438;-51
2024/01/31 10:32:51;;;;;;;33.42;19.75;;;;;;;4.91;100.00;102129.47;5035274;28;20052;-45
2024/01/31 10:35:22;;;;;;;40.38;21.35;;;;;;;5.03;100.00;102121.47;5033266;28;20045;-43
2024/01/31 10:38:16;;;;;;;43.63;21.17;;;;;;;5.09;100.00;102113.47;5032130;28;20042;-44
2024/01/31 10:40:48;;;;;;;37.08;20.92;;;;;;;5.27;100.00;102111.56;5038392;28;20414;-46
2024/01/31 10:43:18;;;;;;;37.17;19.98;;;;;;;5.30;100.00;102103.59;5043888;28;20423;-45
2024/01/31 10:45:47;;;;;;;33.15;19.60;;;;;;;5.25;100.00;102097.50;5042386;28;20072;-52
2024/01/31 10:48:16;;;;;;;37.80;20.35;;;;;;;5.35;100.00;102097.38;5040094;28;20046;-44
2024/01/31 10:50:47;;;;;;;34.40;18.90;;;;;;;5.35;100.00;102092.09;5032381;28;20141;-45
2024/01/31 10:53:17;;;;;;;34.63;18.52;;;;;;;5.42;100.00;102085.00;5031931;28;20094;-43
2024/01/31 10:55:47;;;;;;;31.48;18.52;;;;;;;5.40;100.00;102085.00;5031481;28;20487;-44
2024/01/31 10:58:16;;;;;;;31.45;18.08;;;;;;;5.29;100.00;102086.84;5030831;28;20053;-44
2024/01/31 11:00:47;;;;;;;32.40;18.30;;;;;;;5.36;100.00;102088.56;5031630;28;20407;-45
2024/01/31 11:03:18;;;;;;;33.38;18.45;;;;;;;5.37;100.00;102087.66;5031825;28;20057;-45
2024/01/31 11:05:53;;;;;;;33.97;18.08;;;;;;;5.45;100.00;102087.59;5031818;28;20133;-47
2024/01/31 11:08:26;;;;;;;37.03;19.67;;;;;;;5.50;100.00;102085.78;5031149;28;20099;-42
2024/01/31 11:10:54;;;;;;;32.55;19.23;;;;;;;5.53;100.00;102074.28;5030510;28;20045;-45
2024/01/31 11:13:25;;;;;;;35.58;19.92;;;;;;;5.37;100.00;102073.56;5031371;28;20049;-46
2024/01/31 11:15:54;;;;;;;35.03;19.58;;;;;;;5.53;100.00;102075.16;5030943;28;20061;-43
2024/01/31 11:18:26;;;;;;;35.90;21.73;;;;;;;5.60;100.00;102060.97;5031328;28;20132;-46